Time;durP1;ratioP1;P1;durP2;ratioP2;P2;SDS_P1;SDS_P2;PMS_P1;PMS_P2;Temp;Humidity;BMP_temperature;BMP_pressure;BME280_temperature;BME280_humidity;BME280_pressure;Samples;Min_cycle;Max_cycle;Signal;HPM_P1;HPM_P2
2023/03/04 00:02:22;;;;;;;18.13;3.75;;;8.30;99.90;;;;;;5060127;28;20050;-88
2023/03/04 00:04:48;;;;;;;12.38;2.40;;;8.40;99.90;;;;;;5043892;28;20473;-88
2023/03/04 00:07:15;;;;;;;15.02;2.65;;;8.40;99.90;;;;;;5060416;28;20020;-89
2023/03/04 00:09:42;;;;;;;14.88;2.30;;;8.30;99.90;;;;;;5043895;28;20028;-88
2023/03/04 00:12:08;;;;;;;12.05;2.22;;;8.30;99.90;;;;;;5044836;28;20036;-88
2023/03/04 00:14:34;;;;;;;14.10;2.70;;;8.30;99.90;;;;;;5062019;28;20127;-89
2023/03/04 00:17:03;;;;;;;15.82;2.65;;;8.30;99.90;;;;;;5063039;28;20058;-87
2023/03/04 00:19:29;;;;;;;16.23;2.55;;;8.30;99.90;;;;;;5066776;28;20033;-88
2023/03/04 00:21:55;;;;;;;12.57;2.28;;;8.20;99.90;;;;;;5049564;28;20025;-88
2023/03/04 00:24:21;;;;;;;19.88;3.45;;;8.30;99.90;;;;;;5067469;28;20025;-88
2023/03/04 00:26:46;;;;;;;18.52;2.72;;;8.20;99.90;;;;;;5050971;28;20037;-89
2023/03/04 00:29:12;;;;;;;15.20;2.53;;;8.20;99.90;;;;;;5063054;28;20016;-87
2023/03/04 00:31:39;;;;;;;15.90;2.63;;;8.20;99.90;;;;;;5048554;28;20050;-88
2023/03/04 00:34:05;;;;;;;15.23;2.38;;;8.20;99.90;;;;;;5060538;28;20060;-88
2023/03/04 00:36:30;;;;;;;15.18;2.58;;;8.20;99.90;;;;;;5059049;28;20039;-89
2023/03/04 00:38:56;;;;;;;16.05;2.60;;;8.20;99.90;;;;;;5061853;28;20085;-88
2023/03/04 00:41:22;;;;;;;15.20;2.67;;;8.20;99.90;;;;;;5080923;28;20020;-89
2023/03/04 00:43:47;;;;;;;18.20;2.00;;;8.20;99.90;;;;;;5060826;28;20048;-89
2023/03/04 00:46:13;;;;;;;14.48;2.40;;;8.20;99.90;;;;;;5078681;28;20070;-88
2023/03/04 00:48:39;;;;;;;16.38;2.72;;;8.20;99.90;;;;;;5076151;28;20028;-86
2023/03/04 00:51:05;;;;;;;14.45;2.13;;;8.20;99.90;;;;;;5059213;28;20024;-85
2023/03/04 00:53:30;;;;;;;12.57;2.42;;;8.20;99.90;;;;;;5076920;28;20084;-88
2023/03/04 00:55:56;;;;;;;14.55;2.28;;;8.20;99.90;;;;;;5068426;28;20020;-86
2023/03/04 00:58:22;;;;;;;19.42;2.65;;;8.20;99.90;;;;;;5082695;28;20056;-86
2023/03/04 01:00:47;;;;;;;19.90;2.70;;;8.10;99.90;;;;;;5042412;28;20036;-87
2023/03/04 01:03:13;;;;;;;16.00;2.10;;;8.20;99.90;;;;;;5058226;28;20453;-87
2023/03/04 01:05:39;;;;;;;12.88;2.10;;;8.10;99.90;;;;;;5041379;28;20488;-87
2023/03/04 01:08:06;;;;;;;12.07;2.20;;;8.10;99.90;;;;;;5042014;28;20020;-87
2023/03/04 01:10:32;;;;;;;16.90;2.70;;;8.20;99.90;;;;;;5057497;28;20028;-86
2023/03/04 01:12:58;;;;;;;13.10;2.60;;;8.10;99.90;;;;;;5077277;28;20029;-87
2023/03/04 01:15:24;;;;;;;18.92;2.30;;;8.10;99.90;;;;;;5057369;28;20044;-87
2023/03/04 01:17:50;;;;;;;16.10;2.30;;;8.10;99.90;;;;;;5040871;28;20685;-87
2023/03/04 01:20:16;;;;;;;15.75;2.30;;;8.10;99.90;;;;;;5041134;28;20033;-87
2023/03/04 01:22:41;;;;;;;8.35;1.63;;;8.10;99.90;;;;;;5057464;28;20024;-87
2023/03/04 01:25:08;;;;;;;15.30;2.20;;;8.10;99.90;;;;;;5041760;28;20060;-87
2023/03/04 01:27:34;;;;;;;12.27;2.03;;;8.00;99.90;;;;;;5074676;28;20477;-86
2023/03/04 01:29:59;;;;;;;12.38;2.92;;;8.00;99.90;;;;;;5057546;28;20028;-86
2023/03/04 01:32:25;;;;;;;12.68;2.10;;;8.00;99.90;;;;;;5056984;28;20028;-86
2023/03/04 01:34:51;;;;;;;12.85;2.10;;;8.00;99.90;;;;;;5040568;28;20043;-86
2023/03/04 01:37:16;;;;;;;14.30;1.90;;;8.00;99.90;;;;;;5040330;28;20020;-87
2023/03/04 01:39:42;;;;;;;11.50;2.30;;;8.00;99.90;;;;;;5040591;28;20035;-86
2023/03/04 01:42:30;;;;;;;11.50;2.10;;;8.00;99.90;;;;;;5040581;28;20028;-87
2023/03/04 01:44:56;;;;;;;19.40;2.22;;;8.00;99.90;;;;;;5057356;28;20025;-86
2023/03/04 01:47:25;;;;;;;13.88;2.63;;;8.00;99.90;;;;;;5040637;28;20048;-86
2023/03/04 01:49:56;;;;;;;16.67;2.35;;;8.00;99.90;;;;;;5075432;28;20024;-86
2023/03/04 01:52:22;;;;;;;11.02;1.98;;;8.00;99.90;;;;;;5061157;28;20035;-86
2023/03/04 01:54:48;;;;;;;17.90;3.22;;;8.00;99.90;;;;;;5078365;28;20607;-86
2023/03/04 01:57:19;;;;;;;18.63;2.00;;;8.00;99.90;;;;;;5044851;28;20058;-86
2023/03/04 01:59:46;;;;;;;16.90;4.03;;;8.00;99.90;;;;;;5078540;28;20099;-86
2023/03/04 02:02:13;;;;;;;13.07;1.83;;;8.00;99.90;;;;;;5044892;28;20032;-86
2023/03/04 02:04:40;;;;;;;11.85;1.83;;;8.00;99.90;;;;;;5060925;28;20046;-86
2023/03/04 02:07:06;;;;;;;10.80;2.03;;;7.90;99.90;;;;;;5078353;28;20021;-86
2023/03/04 02:09:33;;;;;;;23.08;4.15;;;7.90;99.90;;;;;;5044313;28;20029;-86
2023/03/04 02:12:00;;;;;;;15.98;2.10;;;7.90;99.90;;;;;;5061820;28;20027;-85
2023/03/04 02:14:26;;;;;;;16.80;3.05;;;7.90;99.90;;;;;;5044133;28;20053;-85
2023/03/04 02:16:52;;;;;;;14.13;2.03;;;7.90;99.90;;;;;;5060625;28;20104;-85
2023/03/04 02:19:45;;;;;;;11.52;1.83;;;7.90;99.90;;;;;;5044219;28;20060;-87
2023/03/04 02:22:11;;;;;;;16.90;2.95;;;7.90;99.90;;;;;;5061948;28;20028;-86
2023/03/04 02:24:46;;;;;;;12.55;2.15;;;7.90;99.90;;;;;;5045204;28;20477;-86
2023/03/04 02:27:12;;;;;;;10.75;1.92;;;7.90;99.90;;;;;;5061006;28;20505;-86
2023/03/04 02:29:37;;;;;;;16.38;2.13;;;7.90;99.90;;;;;;5060877;28;20029;-86
2023/03/04 02:32:03;;;;;;;15.23;2.15;;;7.90;99.90;;;;;;5043892;28;20029;-86
2023/03/04 02:34:33;;;;;;;13.82;2.38;;;7.90;99.90;;;;;;5060517;28;20131;-86
2023/03/04 02:37:00;;;;;;;13.93;2.53;;;7.90;99.90;;;;;;5078534;28;20175;-86
2023/03/04 02:39:33;;;;;;;12.30;2.45;;;7.90;99.90;;;;;;5078538;28;20027;-86
2023/03/04 02:42:00;;;;;;;17.10;2.72;;;7.90;99.90;;;;;;5061323;28;20053;-86
2023/03/04 02:44:31;;;;;;;13.93;2.28;;;7.90;99.90;;;;;;5078786;28;20116;-85
2023/03/04 02:46:58;;;;;;;13.60;1.80;;;7.90;99.90;;;;;;5060635;28;20460;-85
2023/03/04 02:49:26;;;;;;;14.25;1.92;;;7.90;99.90;;;;;;5060948;28;20107;-85
2023/03/04 02:51:57;;;;;;;17.33;2.33;;;7.80;99.90;;;;;;5060804;28;20056;-85
2023/03/04 02:54:23;;;;;;;;;;;7.90;99.90;;;;;;5045198;28;20029;-86
2023/03/04 02:56:51;;;;;;;13.23;2.03;;;7.80;99.90;;;;;;5060793;28;20344;-86
2023/03/04 02:59:18;;;;;;;9.60;1.67;;;7.80;99.90;;;;;;5059998;28;20051;-85
2023/03/04 03:01:44;;;;;;;12.65;2.25;;;7.80;99.90;;;;;;5042696;28;20124;-86
2023/03/04 03:04:09;;;;;;;11.15;1.88;;;7.80;99.90;;;;;;5043811;28;20055;-86
2023/03/04 03:06:35;;;;;;;10.45;1.65;;;7.80;99.90;;;;;;5043199;28;20028;-87
2023/03/04 03:09:01;;;;;;;15.93;2.55;;;7.80;99.90;;;;;;5047394;28;20029;-86
2023/03/04 03:11:27;;;;;;;18.25;2.53;;;7.80;99.90;;;;;;5093282;28;20032;-86
2023/03/04 03:13:53;;;;;;;12.55;1.75;;;7.80;99.90;;;;;;5075624;28;20040;-85
2023/03/04 03:16:18;;;;;;;10.02;1.90;;;7.80;99.90;;;;;;5060092;28;20405;-86
2023/03/04 03:18:44;;;;;;;13.20;1.85;;;7.70;99.90;;;;;;5059938;28;20423;-85
2023/03/04 03:21:10;;;;;;;12.85;2.42;;;7.80;99.90;;;;;;5076385;28;20032;-86
2023/03/04 03:23:37;;;;;;;10.75;1.80;;;7.80;99.90;;;;;;5076096;28;20028;-86
2023/03/04 03:26:02;;;;;;;9.50;1.77;;;7.80;99.90;;;;;;5076424;28;20032;-86
2023/03/04 03:28:28;;;;;;;12.07;1.65;;;7.70;99.90;;;;;;5068882;28;20427;-85
2023/03/04 03:30:56;;;;;;;13.13;3.22;;;7.80;99.90;;;;;;5042643;28;20032;-86
2023/03/04 03:33:22;;;;;;;12.30;1.73;;;7.70;99.90;;;;;;5058720;28;20020;-86
2023/03/04 03:35:48;;;;;;;21.35;2.40;;;7.80;99.90;;;;;;5058655;28;20084;-86
2023/03/04 03:38:13;;;;;;;12.15;1.67;;;7.70;99.90;;;;;;5059113;28;20422;-86
2023/03/04 03:40:39;;;;;;;12.50;2.65;;;7.80;99.90;;;;;;5058830;28;20385;-88
2023/03/04 03:43:05;;;;;;;13.68;1.65;;;7.70;99.90;;;;;;5045589;28;20047;-86
2023/03/04 03:45:31;;;;;;;13.02;2.10;;;7.80;99.90;;;;;;5044293;28;20464;-87
2023/03/04 03:47:56;;;;;;;15.43;2.13;;;7.80;99.90;;;;;;5076209;28;20040;-86
2023/03/04 03:50:22;;;;;;;14.68;1.90;;;7.70;99.90;;;;;;5058035;28;20024;-85
2023/03/04 03:52:48;;;;;;;9.18;1.63;;;7.80;99.90;;;;;;5041829;28;20052;-86
2023/03/04 03:55:14;;;;;;;11.60;2.13;;;7.80;99.90;;;;;;5041820;28;20539;-87
2023/03/04 03:57:40;;;;;;;10.50;1.70;;;7.80;99.90;;;;;;5067283;28;20077;-86
2023/03/04 04:00:07;;;;;;;11.80;2.03;;;7.70;99.90;;;;;;5062961;28;20012;-86
2023/03/04 04:02:33;;;;;;;18.52;2.25;;;7.70;99.90;;;;;;5077772;28;20083;-86
2023/03/04 04:04:58;;;;;;;10.98;1.92;;;7.70;99.90;;;;;;5057074;28;20078;-85
2023/03/04 04:07:24;;;;;;;8.85;2.47;;;7.70;99.90;;;;;;5058017;28;20030;-86
2023/03/04 04:09:50;;;;;;;16.45;2.25;;;7.70;99.90;;;;;;5074087;28;20043;-87
2023/03/04 04:12:17;;;;;;;12.82;1.75;;;7.70;99.90;;;;;;5050328;28;20052;-87
2023/03/04 04:14:43;;;;;;;13.27;1.92;;;7.70;99.90;;;;;;5075894;28;20109;-89
2023/03/04 04:17:09;;;;;;;14.43;2.08;;;7.70;99.90;;;;;;5042779;28;20521;-86
2023/03/04 04:19:34;;;;;;;12.68;2.17;;;7.70;99.90;;;;;;5041024;28;20342;-87
2023/03/04 04:22:01;;;;;;;13.93;2.05;;;7.70;99.90;;;;;;5040852;28;20123;-86
2023/03/04 04:24:26;;;;;;;12.18;1.52;;;7.70;99.90;;;;;;5057899;28;20112;-86
2023/03/04 04:26:52;;;;;;;12.27;1.75;;;7.70;99.90;;;;;;5057157;28;20464;-86
2023/03/04 04:29:18;;;;;;;15.55;2.63;;;7.70;99.90;;;;;;5075224;28;20023;-86
2023/03/04 04:31:43;;;;;;;9.55;1.85;;;7.70;99.90;;;;;;5057001;28;20436;-86
2023/03/04 04:34:09;;;;;;;10.65;1.52;;;7.70;99.90;;;;;;5057419;28;20532;-86
2023/03/04 04:36:35;;;;;;;13.30;2.85;;;7.70;99.90;;;;;;5057015;28;20475;-87
2023/03/04 04:39:01;;;;;;;11.82;1.73;;;7.70;99.90;;;;;;5056963;28;20024;-86
2023/03/04 04:41:35;;;;;;;8.45;1.60;;;7.70;99.90;;;;;;5057327;28;20044;-86
2023/03/04 04:44:00;;;;;;;11.80;1.77;;;7.60;99.90;;;;;;5057079;28;20028;-85
2023/03/04 04:46:26;;;;;;;12.45;1.58;;;7.60;99.90;;;;;;5057609;28;20028;-86
2023/03/04 04:48:52;;;;;;;10.43;1.42;;;7.70;99.90;;;;;;5057129;28;20372;-87
2023/03/04 04:51:18;;;;;;;10.70;1.25;;;7.60;99.90;;;;;;5040344;28;20054;-86
2023/03/04 04:53:43;;;;;;;12.88;2.35;;;7.60;99.90;;;;;;5039896;28;20039;-86
2023/03/04 04:56:15;;;;;;;11.45;1.75;;;7.60;99.90;;;;;;5040351;28;20028;-86
2023/03/04 04:58:41;;;;;;;13.20;2.13;;;7.60;99.90;;;;;;5057305;28;20131;-86
2023/03/04 05:01:07;;;;;;;14.52;3.28;;;7.60;99.90;;;;;;5074641;28;20029;-86
2023/03/04 05:03:35;;;;;;;12.60;2.92;;;7.60;99.90;;;;;;5056945;28;20536;-87
2023/03/04 05:06:01;;;;;;;9.02;1.38;;;7.60;99.90;;;;;;5040743;28;20025;-85
2023/03/04 05:08:27;;;;;;;9.70;1.38;;;7.60;99.90;;;;;;5056951;28;20066;-87
2023/03/04 05:10:53;;;;;;;14.30;1.70;;;7.60;99.90;;;;;;5056770;28;20427;-90
2023/03/04 05:13:19;;;;;;;12.77;1.63;;;7.60;99.90;;;;;;5040286;28;20116;-87
2023/03/04 05:15:45;;;;;;;12.23;1.67;;;7.60;99.90;;;;;;5056136;28;20067;-87
2023/03/04 05:18:11;;;;;;;12.23;1.70;;;7.60;99.90;;;;;;5056213;28;20060;-87
2023/03/04 05:20:37;;;;;;;8.23;1.73;;;7.60;99.90;;;;;;5056641;28;20059;-87
2023/03/04 05:23:03;;;;;;;17.15;2.03;;;7.60;99.90;;;;;;5074192;28;20017;-86
2023/03/04 05:25:28;;;;;;;11.65;3.03;;;7.60;99.90;;;;;;5055630;28;20430;-87
2023/03/04 05:27:54;;;;;;;10.50;1.70;;;7.60;99.90;;;;;;5040298;28;20021;-87
2023/03/04 05:30:20;;;;;;;8.70;1.52;;;7.50;99.90;;;;;;5040318;28;20029;-87
2023/03/04 05:32:45;;;;;;;8.85;1.80;;;7.50;99.90;;;;;;5056846;28;20422;-87
2023/03/04 05:35:11;;;;;;;11.32;1.70;;;7.50;99.90;;;;;;5056546;28;20446;-87
2023/03/04 05:37:37;;;;;;;8.38;1.50;;;7.60;99.90;;;;;;5039971;28;20024;-87
2023/03/04 05:40:04;;;;;;;5.57;1.30;;;7.50;99.90;;;;;;5039805;28;20017;-87
2023/03/04 05:42:30;;;;;;;11.73;1.50;;;7.50;99.90;;;;;;5056672;28;20178;-87
2023/03/04 05:44:56;;;;;;;4.82;1.23;;;7.50;99.90;;;;;;5056471;28;20460;-87
2023/03/04 05:47:21;;;;;;;13.05;1.80;;;7.50;99.90;;;;;;5039725;28;20120;-86
2023/03/04 05:49:47;;;;;;;11.88;1.52;;;7.50;99.90;;;;;;5039811;28;20032;-87
2023/03/04 05:52:13;;;;;;;8.10;1.50;;;7.50;99.90;;;;;;5055855;28;20029;-87
2023/03/04 05:54:38;;;;;;;4.40;1.20;;;7.50;99.90;;;;;;5039400;28;20044;-87
2023/03/04 05:57:04;;;;;;;9.43;1.90;;;7.50;99.90;;;;;;5058001;28;20021;-87
2023/03/04 05:59:30;;;;;;;8.10;1.45;;;7.50;99.90;;;;;;5042218;28;20025;-87
2023/03/04 06:01:55;;;;;;;10.90;1.67;;;7.50;99.90;;;;;;5042227;28;20016;-88
2023/03/04 06:04:21;;;;;;;13.50;1.83;;;7.50;99.90;;;;;;5043997;28;20039;-87
2023/03/04 06:06:47;;;;;;;9.35;1.50;;;7.50;99.90;;;;;;5041146;28;20025;-87
2023/03/04 06:09:13;;;;;;;12.27;1.50;;;7.50;99.90;;;;;;5042916;28;20081;-86
2023/03/04 06:11:40;;;;;;;9.35;1.85;;;7.40;99.90;;;;;;5041850;28;20029;-87
2023/03/04 06:14:06;;;;;;;6.68;1.30;;;7.40;99.90;;;;;;5056158;28;20041;-87
2023/03/04 06:16:32;;;;;;;12.20;2.03;;;7.50;99.90;;;;;;5058842;28;20031;-87
2023/03/04 06:18:57;;;;;;;17.10;1.77;;;7.50;99.90;;;;;;5041780;28;20024;-88
2023/03/04 06:21:23;;;;;;;12.18;1.92;;;7.50;99.90;;;;;;5058437;28;20024;-88
2023/03/04 06:23:49;;;;;;;9.00;1.77;;;7.50;99.90;;;;;;5040728;28;20487;-87
2023/03/04 06:26:15;;;;;;;10.63;1.60;;;7.50;99.90;;;;;;5056273;28;20414;-87
2023/03/04 06:28:42;;;;;;;9.50;1.45;;;7.40;99.90;;;;;;5056196;28;20051;-87
2023/03/04 06:31:07;;;;;;;18.42;3.00;;;7.50;99.90;;;;;;5056110;28;20024;-86
2023/03/04 06:33:33;;;;;;;7.38;1.50;;;7.50;99.90;;;;;;5074599;28;20033;-86
2023/03/04 06:36:02;;;;;;;10.07;1.25;;;7.50;99.90;;;;;;5040698;28;20033;-87
2023/03/04 06:38:27;;;;;;;9.20;1.95;;;7.50;99.90;;;;;;5078136;28;20016;-86
2023/03/04 06:40:53;;;;;;;9.32;1.55;;;7.50;99.90;;;;;;5059946;28;20166;-87
2023/03/04 06:43:19;;;;;;;8.77;1.40;;;7.40;99.90;;;;;;5059483;28;20461;-86
2023/03/04 06:45:48;;;;;;;10.05;2.00;;;7.50;99.90;;;;;;5059811;28;20024;-86
2023/03/04 06:48:22;;;;;;;9.00;2.00;;;7.50;99.90;;;;;;5043144;28;20028;-86
2023/03/04 06:50:48;;;;;;;10.88;1.50;;;7.40;99.90;;;;;;5060811;28;20039;-86
2023/03/04 06:53:13;;;;;;;8.50;1.40;;;7.50;99.90;;;;;;5042884;28;20028;-87
2023/03/04 06:55:39;;;;;;;7.63;1.63;;;7.50;99.90;;;;;;5059569;28;20068;-86
2023/03/04 06:58:05;;;;;;;12.13;1.48;;;7.40;99.90;;;;;;5059349;28;20032;-86
2023/03/04 07:00:31;;;;;;;9.00;1.67;;;7.40;99.90;;;;;;5059203;28;20021;-86
2023/03/04 07:02:57;;;;;;;10.00;1.45;;;7.40;99.90;;;;;;5043072;28;20028;-86
2023/03/04 07:05:23;;;;;;;8.23;1.40;;;7.40;99.90;;;;;;5043140;28;20036;-86
2023/03/04 07:07:49;;;;;;;10.25;1.40;;;7.40;99.90;;;;;;5043479;28;20074;-86
2023/03/04 07:10:18;;;;;;;9.30;1.55;;;7.40;99.90;;;;;;5044557;28;20035;-87
2023/03/04 07:12:44;;;;;;;10.25;1.30;;;7.40;99.90;;;;;;5071075;28;20060;-86
2023/03/04 07:15:11;;;;;;;9.43;1.75;;;7.40;99.90;;;;;;5065303;28;20060;-88
2023/03/04 07:17:36;;;;;;;7.55;1.20;;;7.40;99.90;;;;;;5079594;28;20084;-87
2023/03/04 07:20:02;;;;;;;11.18;1.60;;;7.40;99.90;;;;;;5062439;28;20040;-87
2023/03/04 07:22:28;;;;;;;10.98;1.52;;;7.40;99.90;;;;;;5064567;28;20033;-87
2023/03/04 07:24:54;;;;;;;8.30;1.40;;;7.40;99.90;;;;;;5073021;28;20035;-86
2023/03/04 07:27:20;;;;;;;22.50;3.78;;;7.40;99.90;;;;;;5051504;28;20035;-86
2023/03/04 07:29:45;;;;;;;11.05;1.80;;;7.40;99.90;;;;;;5043234;28;20035;-86
2023/03/04 07:32:11;;;;;;;12.20;1.63;;;7.40;99.90;;;;;;5058943;28;20385;-87
2023/03/04 07:34:37;;;;;;;8.32;1.58;;;7.40;99.90;;;;;;5058397;28;20481;-86
2023/03/04 07:37:03;;;;;;;8.50;1.65;;;7.40;99.90;;;;;;5042841;28;20024;-86
2023/03/04 07:39:28;;;;;;;9.02;1.50;;;7.40;99.90;;;;;;5058386;28;20056;-87
2023/03/04 07:41:55;;;;;;;8.10;1.50;;;7.40;99.90;;;;;;5042104;28;20032;-86
2023/03/04 07:44:21;;;;;;;14.00;2.20;;;7.40;99.90;;;;;;5041765;28;20503;-87
2023/03/04 07:46:50;;;;;;;10.73;2.10;;;7.40;99.90;;;;;;5042499;28;20115;-87
2023/03/04 07:49:15;;;;;;;11.68;1.95;;;7.40;99.90;;;;;;5050760;28;20024;-86
2023/03/04 07:51:41;;;;;;;10.68;1.92;;;7.40;99.90;;;;;;5064382;28;20170;-87
2023/03/04 07:54:07;;;;;;;10.35;1.73;;;7.40;99.90;;;;;;5042018;28;20067;-87
2023/03/04 07:56:33;;;;;;;13.80;1.73;;;7.40;99.90;;;;;;5058348;28;20040;-87
2023/03/04 07:58:59;;;;;;;7.20;1.70;;;7.40;99.90;;;;;;5041731;28;20111;-87
2023/03/04 08:01:36;;;;;;;12.38;1.95;;;7.40;99.90;;;;;;5058557;28;20080;-87
2023/03/04 08:04:03;;;;;;;9.80;1.63;;;7.40;99.90;;;;;;5042318;28;20037;-87
2023/03/04 08:06:29;;;;;;;4.85;1.35;;;7.50;99.90;;;;;;5042869;28;20035;-87
2023/03/04 08:09:05;;;;;;;8.88;1.73;;;7.50;99.90;;;;;;5042025;28;20024;-87
2023/03/04 08:11:32;;;;;;;9.10;1.80;;;7.50;99.90;;;;;;5075391;28;20025;-87
2023/03/04 08:13:58;;;;;;;7.63;1.67;;;7.50;99.90;;;;;;5057416;28;20140;-87
2023/03/04 08:16:24;;;;;;;9.82;1.65;;;7.50;99.90;;;;;;5058794;28;20538;-86
2023/03/04 08:18:53;;;;;;;7.82;1.85;;;7.50;99.90;;;;;;5059297;28;20146;-88
2023/03/04 08:21:21;;;;;;;9.73;2.10;;;7.60;99.90;;;;;;5059450;28;20107;-91
2023/03/04 08:23:47;;;;;;;8.90;1.60;;;7.60;99.90;;;;;;5060182;28;20419;-89
2023/03/04 08:26:16;;;;;;;11.70;1.90;;;7.60;99.90;;;;;;5059309;28;20540;-86
2023/03/04 08:28:42;;;;;;;9.23;1.95;;;7.60;99.90;;;;;;5057358;28;20020;-87
2023/03/04 08:31:08;;;;;;;7.40;1.60;;;7.70;99.90;;;;;;5075904;28;20028;-87
2023/03/04 08:33:34;;;;;;;11.48;1.80;;;7.60;99.90;;;;;;5057757;28;20111;-87
2023/03/04 08:35:59;;;;;;;8.45;1.80;;;7.70;99.90;;;;;;5041160;28;20360;-86
2023/03/04 08:38:25;;;;;;;10.68;1.73;;;7.70;99.90;;;;;;5057526;28;20025;-86
2023/03/04 08:40:53;;;;;;;7.95;1.75;;;7.70;99.90;;;;;;5041463;28;20044;-90
2023/03/04 08:43:18;;;;;;;10.68;2.90;;;7.70;99.90;;;;;;5041570;28;20125;-88
2023/03/04 08:45:46;;;;;;;11.63;2.22;;;7.70;99.90;;;;;;5058252;28;20032;-86
2023/03/04 08:48:12;;;;;;;9.52;1.60;;;7.70;99.90;;;;;;5058013;28;20070;-91
2023/03/04 08:50:38;;;;;;;8.00;1.65;;;7.80;99.90;;;;;;5042709;28;20024;-88
2023/03/04 08:53:03;;;;;;;7.88;2.65;;;7.80;99.90;;;;;;5041281;28;20027;-88
2023/03/04 08:55:29;;;;;;;9.05;1.83;;;7.80;99.90;;;;;;5040884;28;20025;-89
2023/03/04 08:57:55;;;;;;;12.98;2.85;;;7.80;99.90;;;;;;5041330;28;20454;-89
2023/03/04 09:00:22;;;;;;;10.27;2.00;;;7.80;99.90;;;;;;5041348;28;20120;-89
2023/03/04 09:02:48;;;;;;;7.43;1.98;;;7.80;99.90;;;;;;5058016;28;20025;-87
2023/03/04 09:05:14;;;;;;;8.95;1.65;;;7.90;99.90;;;;;;5057265;28;20020;-87
2023/03/04 09:07:40;;;;;;;7.88;1.95;;;7.90;99.90;;;;;;5056584;28;20028;-88
2023/03/04 09:10:06;;;;;;;6.45;1.85;;;7.90;99.90;;;;;;5040857;28;20024;-90
2023/03/04 09:12:31;;;;;;;8.88;1.80;;;7.90;99.90;;;;;;5056995;28;20039;-87
2023/03/04 09:14:58;;;;;;;8.32;2.00;;;7.90;99.90;;;;;;5057064;28;20045;-88
2023/03/04 09:17:23;;;;;;;9.85;2.50;;;7.90;99.90;;;;;;5040443;28;20392;-87
2023/03/04 09:19:49;;;;;;;10.18;2.47;;;8.00;99.90;;;;;;5057498;28;20032;-88
2023/03/04 09:22:15;;;;;;;13.65;2.58;;;8.00;99.90;;;;;;5041085;28;20052;-88
2023/03/04 09:24:40;;;;;;;10.85;2.17;;;8.00;99.90;;;;;;5057921;28;20032;-89
2023/03/04 09:27:07;;;;;;;8.73;2.20;;;8.00;99.90;;;;;;5042379;28;20530;-88
2023/03/04 09:29:33;;;;;;;7.03;2.22;;;8.00;99.90;;;;;;5057900;28;20025;-88
2023/03/04 09:31:59;;;;;;;10.40;2.65;;;8.00;99.90;;;;;;5056977;28;20031;-88
2023/03/04 09:34:24;;;;;;;8.73;2.25;;;8.00;99.90;;;;;;5040459;28;20056;-88
2023/03/04 09:36:50;;;;;;;7.40;2.50;;;8.00;99.90;;;;;;5041033;28;20083;-88
2023/03/04 09:39:16;;;;;;;8.93;2.30;;;8.00;99.90;;;;;;5075207;28;20025;-88
2023/03/04 09:42:00;;;;;;;9.93;3.03;;;8.10;99.90;;;;;;5058377;28;20464;-90
2023/03/04 09:44:42;;;;;;;5.57;1.83;;;8.10;99.90;;;;;;5060560;28;20024;-93
2023/03/04 09:47:18;;;;;;;9.25;2.15;;;8.10;99.90;;;;;;5059726;28;20039;-87
2023/03/04 09:49:51;;;;;;;5.88;1.45;;;8.10;99.90;;;;;;5042510;28;20554;-93
2023/03/04 09:52:27;;;;;;;2.83;1.08;;;8.10;99.90;;;;;;5059092;28;20021;-92
2023/03/04 09:55:02;;;;;;;6.05;1.42;;;8.10;99.90;;;;;;5062477;28;20054;-90
2023/03/04 09:57:43;;;;;;;4.03;1.10;;;8.20;99.90;;;;;;5064827;28;20024;-91
2023/03/04 10:00:23;;;;;;;3.75;1.27;;;8.20;99.90;;;;;;5093508;28;20020;-89
2023/03/04 10:03:10;;;;;;;4.78;1.40;;;8.20;99.90;;;;;;5093952;28;20036;-92
2023/03/04 10:05:43;;;;;;;5.95;1.40;;;8.20;99.90;;;;;;5094729;28;20038;-90
2023/03/04 10:08:31;;;;;;;3.17;1.33;;;8.30;99.90;;;;;;5099453;28;20438;-90
2023/03/04 10:11:02;;;;;;;8.55;1.58;;;8.30;99.90;;;;;;5099680;28;20031;-86
2023/03/04 10:13:54;;;;;;;4.32;1.58;;;8.30;99.90;;;;;;5101174;28;20031;-88
2023/03/04 10:16:53;;;;;;;3.85;1.83;;;8.40;99.90;;;;;;5101026;28;20027;-91
2023/03/04 10:19:57;;;;;;;5.70;1.98;;;8.40;99.90;;;;;;5100102;28;20039;-88
2023/03/04 10:22:32;;;;;;;7.43;2.30;;;8.50;99.90;;;;;;5083518;28;20028;-88
2023/03/04 10:25:17;;;;;;;5.60;1.63;;;8.50;99.90;;;;;;5097453;28;20032;-90
2023/03/04 10:28:08;;;;;;;6.65;1.83;;;8.50;99.90;;;;;;5078448;28;20024;-89
2023/03/04 10:30:42;;;;;;;7.07;2.25;;;8.60;99.90;;;;;;5078811;28;20036;-89
2023/03/04 10:33:19;;;;;;;4.60;1.80;;;8.70;99.90;;;;;;5079319;28;20063;-87
2023/03/04 10:36:08;;;;;;;4.15;1.70;;;8.70;99.90;;;;;;5076453;28;20029;-86
2023/03/04 10:38:35;;;;;;;3.33;1.60;;;8.70;99.90;;;;;;5074495;28;20041;-87
2023/03/04 10:41:12;;;;;;;4.65;1.20;;;8.70;99.90;;;;;;5063933;28;20119;-87
2023/03/04 10:43:38;;;;;;;4.88;1.30;;;8.80;99.90;;;;;;5060912;28;20028;-88
2023/03/04 10:46:04;;;;;;;6.32;2.15;;;8.80;99.90;;;;;;5060437;28;20032;-88
2023/03/04 10:48:30;;;;;;;5.68;1.20;;;8.70;99.90;;;;;;5042822;28;20033;-89
2023/03/04 10:51:22;;;;;;;1.67;0.95;;;8.80;99.90;;;;;;5060158;28;20376;-86
2023/03/04 10:53:55;;;;;;;4.88;1.20;;;8.80;99.90;;;;;;5060381;28;20465;-87
2023/03/04 10:56:29;;;;;;;4.13;1.25;;;8.80;99.90;;;;;;5076236;28;20440;-84
2023/03/04 10:59:33;;;;;;;3.15;1.00;;;8.90;99.90;;;;;;5058901;28;20040;-85
2023/03/04 11:02:00;;;;;;;3.78;1.00;;;8.90;99.90;;;;;;5075939;28;20020;-86
2023/03/04 11:04:31;;;;;;;4.15;1.02;;;8.90;99.90;;;;;;5075975;28;20452;-87
2023/03/04 11:06:57;;;;;;;2.78;0.85;;;9.00;99.90;;;;;;5077863;28;20027;-86
2023/03/04 11:09:26;;;;;;;2.83;1.15;;;9.00;99.90;;;;;;5076521;28;20103;-86
2023/03/04 11:11:54;;;;;;;4.05;1.05;;;9.00;99.90;;;;;;5080417;28;20418;-86
2023/03/04 11:14:29;;;;;;;4.38;1.20;;;9.10;99.90;;;;;;5098304;28;20055;-86
2023/03/04 11:16:58;;;;;;;3.15;0.80;;;9.10;99.90;;;;;;5098460;28;20127;-85
2023/03/04 11:19:31;;;;;;;3.50;1.00;;;9.10;99.90;;;;;;5116636;28;20042;-85
2023/03/04 11:21:58;;;;;;;4.65;1.20;;;9.20;99.90;;;;;;5097664;28;20027;-86
2023/03/04 11:24:28;;;;;;;3.75;1.25;;;9.20;99.90;;;;;;5097906;28;20031;-85
2023/03/04 11:27:10;;;;;;;2.85;0.93;;;9.20;99.90;;;;;;5087505;28;20085;-85
2023/03/04 11:29:42;;;;;;;4.82;1.30;;;9.20;99.90;;;;;;5074401;28;20115;-86
2023/03/04 11:32:24;;;;;;;4.05;1.50;;;9.30;99.90;;;;;;5073720;28;20536;-85
2023/03/04 11:35:12;;;;;;;2.45;1.20;;;9.20;99.90;;;;;;5075051;28;20089;-86
2023/03/04 11:37:49;;;;;;;3.92;0.98;;;9.20;99.90;;;;;;5075720;28;20039;-87
2023/03/04 11:40:32;;;;;;;3.03;1.10;;;9.30;99.90;;;;;;5075443;28;20035;-85
2023/03/04 11:42:59;;;;;;;3.65;1.20;;;9.30;99.90;;;;;;5075325;28;20044;-86
2023/03/04 11:45:34;;;;;;;2.83;0.98;;;9.40;99.90;;;;;;5075225;28;20024;-87
2023/03/04 11:48:11;;;;;;;5.47;1.52;;;9.40;99.90;;;;;;5075253;28;20232;-85
2023/03/04 11:50:52;;;;;;;2.70;1.13;;;9.40;99.90;;;;;;5074678;28;20025;-82
2023/03/04 11:53:46;;;;;;;2.67;0.98;;;9.50;99.90;;;;;;5075760;28;20107;-84
2023/03/04 11:56:14;;;;;;;5.15;1.00;;;9.60;99.90;;;;;;5076180;28;20032;-84
2023/03/04 11:59:04;;;;;;;4.18;1.17;;;9.60;99.90;;;;;;5074053;28;20102;-85
2023/03/04 12:01:48;;;;;;;2.47;0.82;;;9.60;99.90;;;;;;5075575;28;20082;-83
2023/03/04 12:04:39;;;;;;;2.75;0.95;;;9.60;99.90;;;;;;5074149;28;20098;-84
2023/03/04 12:07:29;;;;;;;2.92;1.27;;;9.70;99.90;;;;;;5073561;28;20119;-83
2023/03/04 12:10:01;;;;;;;4.18;1.17;;;9.70;99.90;;;;;;5073679;28;20029;-83
2023/03/04 12:13:04;;;;;;;3.83;0.93;;;9.70;99.90;;;;;;5074240;28;20025;-84
2023/03/04 12:15:38;;;;;;;4.03;1.00;;;9.70;99.90;;;;;;5073919;28;20048;-83
2023/03/04 12:18:29;;;;;;;1.80;0.73;;;9.70;99.90;;;;;;5073644;28;20392;-83
2023/03/04 12:21:18;;;;;;;2.95;0.82;;;9.70;99.90;;;;;;5075400;28;20099;-85
2023/03/04 12:24:17;;;;;;;3.30;0.90;;;9.70;99.90;;;;;;5074043;28;20021;-83
2023/03/04 12:27:11;;;;;;;4.63;0.82;;;9.70;99.90;;;;;;5073593;28;20029;-89
2023/03/04 12:30:19;;;;;;;1.65;0.70;;;9.70;99.90;;;;;;5073878;28;20031;-83
2023/03/04 12:33:23;;;;;;;2.38;0.85;;;9.70;99.90;;;;;;5044045;28;20040;-85
2023/03/04 12:36:16;;;;;;;3.22;0.80;;;9.80;99.90;;;;;;5074256;28;20036;-87
2023/03/04 12:39:13;;;;;;;4.88;1.42;;;9.90;99.90;;;;;;5075762;28;20020;-86
2023/03/04 12:41:56;;;;;;;2.78;0.93;;;9.90;99.90;;;;;;5075134;28;20024;-86
2023/03/04 12:44:22;;;;;;;2.25;0.70;;;10.00;99.90;;;;;;5076962;28;20028;-87
2023/03/04 12:47:12;;;;;;;4.35;0.80;;;10.00;99.90;;;;;;5074981;28;20032;-86
2023/03/04 12:49:57;;;;;;;3.88;0.63;;;10.00;99.90;;;;;;5074987;28;20024;-87
2023/03/04 12:52:53;;;;;;;2.53;0.95;;;10.10;99.90;;;;;;5074708;28;20451;-86
2023/03/04 12:55:25;;;;;;;4.82;1.13;;;10.00;99.90;;;;;;5074849;28;20032;-90
2023/03/04 12:57:54;;;;;;;7.38;1.00;;;10.00;99.90;;;;;;5079119;28;20088;-86
2023/03/04 13:00:37;;;;;;;8.73;1.17;;;10.00;99.90;;;;;;5080113;28;20024;-85
2023/03/04 13:03:28;;;;;;;5.43;1.10;;;9.90;99.90;;;;;;5077797;28;20021;-86
2023/03/04 13:06:06;;;;;;;;;;;9.90;99.90;;;;;;5076193;28;20032;-85
2023/03/04 13:08:49;;;;;;;4.85;0.93;;;9.80;99.90;;;;;;5073905;28;19950;-87